Aurora do Tocantins, Brazil
Current Conditions -  °F | °C
As of 5:00 AM on Monday 24 Nov 2014 (Local Time) from SBBR Reporting Station
Broken Clouds Broken Clouds  
Wind Chill: 68°   Ceiling: 10000
Heat Index: 68°   Visibility: 6mi
Dew Point: 63°   Wind: 2mph
Humidity: 83%   Direction: 300°WNW
Pressure: 30.03"   Gusts: NA
Location:  12.71°S, 46.41°W
Report Text: SBBR 240800Z 30002KT 9999 FEW020 BKN100 20/17 Q1017
Loading
Personal Weather Stations






























Interactive Weather Map New forecast layout! Learn more

10-Day Weather Forecast

Advertisements
Track Severe Weather on mobile